Time;durP1;ratioP1;P1;durP2;ratioP2;P2;SDS_P1;SDS_P2;PMS_P1;PMS_P2;Temp;Humidity;BMP_temperature;BMP_pressure;BME280_temperature;BME280_humidity;BME280_pressure;Samples;Min_cycle;Max_cycle;Signal;HPM_P1;HPM_P2
2021/05/15 00:00:14;;;;;;;6.55;4.40;;;10.80;99.90;;;12.14;80.98;99677.50;5093752;28;20031;-84
2021/05/15 00:02:40;;;;;;;7.28;5.07;;;10.80;99.90;;;12.07;81.34;99683.03;5075179;28;20250;-86
2021/05/15 00:05:09;;;;;;;6.60;5.20;;;10.80;99.90;;;11.97;81.83;99686.59;5075317;28;20028;-82
2021/05/15 00:07:37;;;;;;;6.50;4.88;;;10.80;99.90;;;11.94;82.17;99676.19;5093566;28;20121;-83
2021/05/15 00:10:06;;;;;;;9.65;5.55;;;10.70;99.90;;;11.90;82.57;99680.97;5093571;28;20020;-80
2021/05/15 00:12:33;;;;;;;7.80;5.15;;;10.60;99.90;;;11.83;82.37;99678.13;5075327;28;20488;-83
2021/05/15 00:15:02;;;;;;;7.40;5.43;;;10.50;99.90;;;11.78;83.21;99674.88;5075466;28;20040;-83
2021/05/15 00:17:28;;;;;;;7.40;5.30;;;10.50;99.90;;;11.74;83.26;99665.66;5074871;28;20043;-82
2021/05/15 00:19:54;;;;;;;7.38;5.47;;;10.50;99.90;;;11.68;84.00;99665.19;5074794;28;20032;-81
2021/05/15 00:22:20;;;;;;;7.13;5.55;;;10.50;99.90;;;11.69;83.66;99658.41;5076137;28;20031;-82
2021/05/15 00:24:46;;;;;;;7.82;5.35;;;10.40;99.90;;;11.78;83.67;99664.50;5075549;28;20074;-85
2021/05/15 00:27:11;;;;;;;7.97;5.75;;;10.50;99.90;;;11.74;82.96;99660.88;5075377;28;20031;-84
2021/05/15 00:29:38;;;;;;;6.57;5.10;;;10.40;99.90;;;11.73;82.94;99652.84;5074578;28;20115;-82
2021/05/15 00:32:06;;;;;;;7.05;5.30;;;10.40;99.90;;;11.60;84.00;99663.53;5093255;28;20020;-83
2021/05/15 00:34:32;;;;;;;8.07;5.93;;;10.30;99.90;;;11.60;84.05;99663.53;5074635;28;20028;-83
2021/05/15 00:36:58;;;;;;;7.10;5.15;;;10.30;99.90;;;11.62;83.44;99656.34;5075109;28;20028;-84
2021/05/15 00:39:23;;;;;;;5.68;4.88;;;10.20;99.90;;;11.55;83.85;99655.53;5093986;28;20114;-85
2021/05/15 00:41:49;;;;;;;7.28;4.40;;;10.20;99.90;;;11.38;84.87;99648.59;5076005;28;20158;-84
2021/05/15 00:46:51;;;;;;;7.25;5.55;;;10.00;99.90;;;11.12;86.07;99657.16;5113737;28;20061;-83
2021/05/15 00:49:16;;;;;;;8.38;5.35;;;9.90;99.90;;;11.09;86.31;99652.34;5093062;28;20039;-83
2021/05/15 00:51:43;;;;;;;7.15;5.32;;;9.90;99.90;;;11.05;86.28;99651.50;5093164;28;20028;-85
2021/05/15 00:54:13;;;;;;;7.45;5.68;;;9.90;99.90;;;10.99;86.46;99651.06;5075849;28;20110;-85
2021/05/15 00:56:40;;;;;;;7.57;5.63;;;9.80;99.90;;;11.03;86.68;99648.28;5093996;28;20453;-84
2021/05/15 00:59:06;;;;;;;8.70;5.97;;;9.80;99.90;;;11.02;86.21;99653.06;5074399;28;20120;-84
2021/05/15 01:01:33;;;;;;;6.25;5.22;;;9.80;99.90;;;11.07;86.03;99649.13;5074212;28;20085;-83
2021/05/15 01:03:59;;;;;;;8.30;5.70;;;9.80;99.90;;;11.11;85.81;99652.75;5073998;28;20536;-84
2021/05/15 01:06:25;;;;;;;6.82;5.80;;;9.70;99.90;;;11.02;85.86;99647.50;5092348;28;20028;-83
2021/05/15 01:08:53;;;;;;;8.32;6.25;;;9.70;99.90;;;11.00;85.92;99641.50;5078304;28;20447;-83
2021/05/15 01:11:21;;;;;;;7.13;6.13;;;9.60;99.90;;;10.98;86.27;99646.66;5098201;28;20382;-83
2021/05/15 01:14:00;;;;;;;9.32;5.90;;;9.60;99.90;;;10.85;86.26;99641.75;5074382;28;20200;-82
2021/05/15 01:16:27;;;;;;;7.78;5.65;;;9.60;99.90;;;10.82;86.33;99646.09;5074468;28;20032;-81
2021/05/15 01:18:53;;;;;;;7.88;5.72;;;9.50;99.90;;;10.74;86.86;99652.81;5074569;28;20028;-80
2021/05/15 01:21:21;;;;;;;8.32;6.10;;;9.50;99.90;;;10.71;87.02;99650.78;5093426;28;20097;-83
2021/05/15 01:23:47;;;;;;;9.95;6.68;;;9.40;99.90;;;10.66;87.54;99653.91;5075192;28;20511;-82
2021/05/15 01:26:25;;;;;;;7.90;5.68;;;9.50;99.90;;;10.59;87.78;99649.03;5075385;28;20028;-83
2021/05/15 01:29:01;;;;;;;7.90;5.20;;;9.40;99.90;;;10.67;87.73;99647.13;5074740;28;20466;-84
2021/05/15 01:31:29;;;;;;;6.63;4.85;;;9.40;99.90;;;10.73;87.06;99651.19;5094131;28;20043;-87
2021/05/15 01:33:57;;;;;;;7.93;5.15;;;9.40;99.90;;;10.75;87.07;99639.66;5096055;28;20028;-83
2021/05/15 01:36:28;;;;;;;7.05;5.10;;;9.50;99.90;;;10.75;86.63;99642.44;5075165;28;20032;-84
2021/05/15 01:38:54;;;;;;;5.50;4.30;;;9.40;99.90;;;10.76;86.34;99635.66;5076304;28;20472;-82
2021/05/15 01:41:21;;;;;;;5.43;4.40;;;9.40;99.90;;;10.68;86.72;99639.56;5078122;28;20055;-82
2021/05/15 01:43:48;;;;;;;6.90;4.35;;;9.30;99.90;;;10.68;87.15;99631.19;5078940;28;20115;-85
2021/05/15 01:46:14;;;;;;;5.47;4.60;;;9.30;99.90;;;10.65;87.54;99634.75;5078161;28;20305;-82
2021/05/15 01:48:42;;;;;;;5.60;4.15;;;9.40;99.90;;;10.68;86.62;99636.78;5096280;28;20028;-80
2021/05/15 01:51:12;;;;;;;4.30;3.70;;;9.30;99.90;;;10.62;87.29;99633.53;5078079;28;20028;-83
2021/05/15 01:53:48;;;;;;;5.75;4.18;;;9.30;99.90;;;10.62;86.93;99638.31;5096779;28;20085;-83
2021/05/15 01:56:30;;;;;;;6.13;4.13;;;9.30;99.90;;;10.57;87.31;99629.09;5097121;28;20042;-83
2021/05/15 01:58:58;;;;;;;5.32;3.85;;;9.30;99.90;;;10.62;87.37;99625.16;5079212;28;20032;-81
2021/05/15 02:01:27;;;;;;;5.57;3.60;;;9.20;99.90;;;10.64;86.67;99631.16;5078008;28;20483;-84
2021/05/15 02:03:53;;;;;;;4.88;3.72;;;9.20;99.90;;;10.65;86.60;99626.38;5078752;28;20032;-80
2021/05/15 02:06:19;;;;;;;5.93;3.70;;;9.20;99.90;;;10.61;86.59;99617.97;5097344;28;20024;-82
2021/05/15 02:08:47;;;;;;;4.40;3.65;;;9.20;99.90;;;10.59;87.02;99615.53;5101795;28;20020;-84
2021/05/15 02:11:19;;;;;;;5.65;3.72;;;9.20;99.90;;;10.51;86.94;99621.44;5101132;28;20024;-81
2021/05/15 02:13:49;;;;;;;5.38;4.07;;;9.10;99.90;;;10.42;87.25;99610.59;5099822;28;20251;-82
2021/05/15 02:16:18;;;;;;;6.40;3.95;;;9.10;99.90;;;10.44;87.40;99619.38;5100252;28;20031;-84
2021/05/15 02:18:46;;;;;;;5.00;4.07;;;9.00;99.90;;;10.45;87.47;99615.41;5098777;28;20034;-82
2021/05/15 02:21:12;;;;;;;4.30;3.67;;;9.00;99.90;;;10.39;87.61;99614.16;5098524;28;20032;-84
2021/05/15 02:23:39;;;;;;;5.63;3.75;;;9.00;99.90;;;10.40;87.75;99615.72;5099060;28;20050;-83
2021/05/15 02:26:05;;;;;;;6.35;3.67;;;9.00;99.90;;;10.39;87.96;99610.53;5099123;28;20032;-84
2021/05/15 02:28:32;;;;;;;5.53;3.83;;;9.00;99.90;;;10.44;88.26;99610.19;5097494;28;20019;-83
2021/05/15 02:31:00;;;;;;;5.82;4.45;;;9.10;99.90;;;10.48;88.52;99603.47;5097543;28;20020;-84
2021/05/15 02:33:27;;;;;;;6.25;3.90;;;9.20;99.90;;;10.53;88.49;99603.09;5115866;28;20201;-80
2021/05/15 02:35:53;;;;;;;5.07;3.78;;;9.20;99.90;;;10.59;87.65;99609.16;5115880;28;20027;-83
2021/05/15 02:38:21;;;;;;;6.00;3.97;;;9.20;99.90;;;10.59;87.64;99600.78;5097966;28;20027;-84
2021/05/15 02:40:47;;;;;;;7.22;3.95;;;9.20;99.90;;;10.58;87.72;99600.00;5097421;28;20038;-82
2021/05/15 02:43:15;;;;;;;4.43;3.78;;;9.20;99.90;;;10.60;87.81;99602.38;5098073;28;20057;-82
2021/05/15 02:45:41;;;;;;;5.53;4.65;;;9.20;99.90;;;10.63;87.53;99593.22;5097760;28;20038;-82
2021/05/15 02:48:08;;;;;;;7.40;4.63;;;9.20;99.90;;;10.59;87.52;99595.22;5097775;28;20038;-82
2021/05/15 02:50:35;;;;;;;6.72;4.55;;;9.20;99.90;;;10.56;87.54;99596.75;5115855;28;20034;-82
2021/05/15 02:53:02;;;;;;;7.57;4.82;;;9.20;99.90;;;10.54;87.90;99601.94;5115104;28;20027;-82
2021/05/15 02:55:28;;;;;;;5.90;4.20;;;9.20;99.90;;;10.58;87.52;99590.81;5097744;28;20032;-84
2021/05/15 02:57:55;;;;;;;9.05;5.03;;;9.20;99.90;;;10.60;87.88;99585.63;5097924;28;20031;-85
2021/05/15 03:00:27;;;;;;;7.05;4.80;;;9.20;99.90;;;10.67;87.78;99587.69;5105619;28;20027;-79
2021/05/15 03:02:53;;;;;;;6.97;5.00;;;9.20;99.90;;;10.71;87.43;99580.16;5119076;28;20040;-80
2021/05/15 03:05:27;;;;;;;7.65;4.97;;;9.30;99.90;;;10.73;87.59;99584.16;5101329;28;20039;-82
2021/05/15 03:07:54;;;;;;;7.80;5.05;;;9.30;99.90;;;10.78;87.66;99585.81;5096996;28;20031;-82
2021/05/15 03:10:24;;;;;;;7.10;5.50;;;9.30;99.90;;;10.80;87.43;99589.00;5099152;28;20052;-84
2021/05/15 03:12:56;;;;;;;6.93;4.70;;;9.40;99.90;;;10.76;86.94;99588.97;5095287;28;20519;-83
2021/05/15 03:15:25;;;;;;;7.95;5.43;;;9.30;99.90;;;10.77;86.95;99589.78;5076768;28;20066;-81
2021/05/15 03:17:52;;;;;;;6.57;5.05;;;9.30;99.90;;;10.64;86.92;99586.47;5076610;28;20020;-83
2021/05/15 03:20:24;;;;;;;6.22;4.90;;;9.20;99.90;;;10.55;87.76;99583.19;5076716;28;20519;-83
2021/05/15 03:22:51;;;;;;;6.68;4.57;;;9.20;99.90;;;10.55;87.26;99572.03;5076712;28;20115;-83
2021/05/15 03:25:19;;;;;;;7.82;5.07;;;9.10;99.90;;;10.47;87.35;99573.13;5095223;28;20070;-81
2021/05/15 03:27:46;;;;;;;7.68;5.28;;;9.10;99.90;;;10.46;87.94;99577.13;5095297;28;20023;-82
2021/05/15 03:30:15;;;;;;;8.52;6.25;;;9.10;99.90;;;10.40;88.02;99568.28;5076633;28;20055;-82
2021/05/15 03:33:02;;;;;;;7.32;5.38;;;9.10;99.90;;;10.40;88.21;99564.72;5075182;28;20484;-83
2021/05/15 03:35:28;;;;;;;6.80;4.82;;;9.10;99.90;;;10.44;88.22;99577.50;5075692;28;20395;-83
2021/05/15 03:37:54;;;;;;;5.90;5.05;;;9.10;99.90;;;10.45;87.49;99572.72;5076369;28;20192;-82
2021/05/15 03:40:19;;;;;;;6.28;4.70;;;9.00;99.90;;;10.44;87.74;99583.09;5074988;28;20028;-81
2021/05/15 03:42:47;;;;;;;6.20;4.07;;;9.00;99.90;;;10.35;87.35;99570.63;5075133;28;20036;-82
2021/05/15 03:45:14;;;;;;;6.22;4.20;;;8.90;99.90;;;10.30;87.46;99582.94;5075935;28;20028;-80
2021/05/15 03:47:41;;;;;;;5.90;4.53;;;8.90;99.90;;;10.25;87.97;99579.66;5093047;28;20542;-82
2021/05/15 03:50:08;;;;;;;6.30;4.57;;;8.80;99.90;;;10.19;88.53;99573.63;5094239;28;20225;-82
2021/05/15 03:52:34;;;;;;;5.97;4.40;;;8.80;99.90;;;10.20;88.33;99574.44;5074659;28;20035;-82
2021/05/15 03:55:01;;;;;;;4.82;3.80;;;8.90;99.90;;;10.26;88.08;99575.72;5092923;28;20446;-82
2021/05/15 03:57:27;;;;;;;7.72;4.40;;;8.80;99.90;;;10.30;87.90;99570.97;5074466;28;20042;-83
2021/05/15 03:59:53;;;;;;;6.68;4.22;;;8.90;99.90;;;10.35;87.67;99574.22;5074098;28;20110;-83
2021/05/15 04:02:22;;;;;;;4.22;3.83;;;8.90;99.90;;;10.38;87.54;99567.06;5092427;28;20445;-81
2021/05/15 04:04:52;;;;;;;4.60;3.22;;;9.00;99.90;;;10.45;87.48;99575.50;5093075;28;20030;-84
2021/05/15 04:07:18;;;;;;;4.60;3.42;;;9.20;99.90;;;10.51;87.10;99582.34;5075230;28;20082;-84
2021/05/15 04:09:45;;;;;;;4.63;3.58;;;9.30;99.90;;;10.58;86.65;99582.44;5105537;28;20050;-82
2021/05/15 04:12:13;;;;;;;4.15;3.28;;;9.20;99.90;;;10.68;86.06;99576.16;5095067;28;20026;-84
2021/05/15 04:15:34;;;;;;;6.50;3.70;;;9.40;99.90;;;10.74;85.79;99577.41;5112689;28;20361;-83
2021/05/15 04:17:29;;;;;;;6.20;3.60;;;9.40;99.90;;;10.78;85.98;99574.63;5104201;28;20144;-84
2021/05/15 04:19:57;;;;;;;3.90;3.40;;;9.50;99.90;;;10.85;85.61;99574.72;5094173;28;20375;-84
2021/05/15 04:22:24;;;;;;;4.28;3.28;;;9.60;99.90;;;10.97;84.84;99578.00;5093956;28;20030;-83
2021/05/15 04:24:50;;;;;;;3.05;2.72;;;9.60;99.90;;;11.05;84.18;99579.66;5112106;28;20024;-83
2021/05/15 04:27:16;;;;;;;3.33;2.75;;;9.70;99.90;;;10.96;84.85;99576.41;5112300;28;20073;-86
2021/05/15 04:29:44;;;;;;;4.68;3.22;;;9.80;99.90;;;11.13;84.56;99579.72;5094574;28;20016;-84
2021/05/15 04:32:11;;;;;;;6.13;3.17;;;9.80;99.90;;;11.19;84.21;99580.97;5094306;28;20484;-83
2021/05/15 04:34:37;;;;;;;6.72;3.28;;;9.80;99.90;;;11.11;84.35;99571.72;5094380;28;20031;-84
2021/05/15 04:37:04;;;;;;;4.10;3.00;;;9.80;99.90;;;11.16;83.72;99573.34;5094693;28;20036;-84
2021/05/15 04:39:33;;;;;;;4.85;3.17;;;9.80;99.90;;;11.18;84.13;99582.94;5094072;28;20288;-83
2021/05/15 04:42:01;;;;;;;3.30;2.30;;;9.80;99.90;;;11.15;83.90;99580.13;5094884;28;20023;-81
2021/05/15 04:44:28;;;;;;;3.42;2.45;;;9.80;99.90;;;11.06;84.76;99584.06;5112027;28;20562;-84
2021/05/15 04:46:55;;;;;;;7.40;2.92;;;9.90;99.90;;;11.15;84.35;99578.13;5094130;28;20487;-84
2021/05/15 04:49:22;;;;;;;4.45;2.33;;;9.90;99.90;;;11.25;84.07;99577.41;5093651;28;20064;-83
2021/05/15 04:51:48;;;;;;;3.70;2.80;;;9.90;99.90;;;11.29;84.00;99580.25;5094460;28;20066;-81
2021/05/15 04:54:14;;;;;;;4.13;2.65;;;10.00;99.90;;;11.30;83.57;99570.66;5094746;28;20027;-83
2021/05/15 04:56:41;;;;;;;3.92;2.72;;;10.00;99.90;;;11.35;83.18;99573.91;5113966;28;20447;-84
2021/05/15 04:59:07;;;;;;;4.78;3.05;;;10.00;99.90;;;11.46;82.99;99577.53;5095263;28;20042;-83
2021/05/15 05:01:33;;;;;;;4.13;2.78;;;10.10;99.90;;;11.38;83.32;99569.50;5113793;28;20035;-84
2021/05/15 05:04:02;;;;;;;3.78;2.58;;;10.10;99.90;;;11.40;83.53;99572.72;5113143;28;20467;-84
2021/05/15 05:06:28;;;;;;;6.15;2.40;;;10.20;99.90;;;11.53;82.47;99580.38;5079632;28;20024;-84
2021/05/15 05:08:54;;;;;;;6.65;2.33;;;10.30;99.90;;;11.49;82.46;99573.19;5096507;28;20426;-83
2021/05/15 05:11:20;;;;;;;4.70;2.38;;;10.40;99.90;;;11.64;82.42;99572.06;5094087;28;20020;-81
2021/05/15 05:13:46;;;;;;;4.78;2.03;;;10.30;99.90;;;11.69;81.66;99579.31;5094931;28;20027;-80
2021/05/15 05:16:12;;;;;;;4.20;2.58;;;10.40;99.90;;;11.64;81.95;99574.88;5097706;28;20034;-83
2021/05/15 05:18:38;;;;;;;3.13;2.20;;;10.40;99.90;;;11.73;81.74;99575.34;5120263;27;20415;-80
2021/05/15 05:21:04;;;;;;;3.33;2.45;;;10.40;99.90;;;11.66;81.55;99575.28;5122312;28;20024;-81
2021/05/15 05:23:30;;;;;;;3.83;2.30;;;10.50;99.90;;;11.62;81.94;99574.47;5128110;27;20040;-84
2021/05/15 05:25:56;;;;;;;2.70;2.05;;;10.50;99.90;;;11.65;81.85;99580.06;5117583;28;20122;-86
2021/05/15 05:28:32;;;;;;;4.07;2.17;;;10.50;99.90;;;11.70;82.32;99583.69;5116616;28;20494;-84
2021/05/15 05:30:58;;;;;;;3.90;2.30;;;10.50;99.90;;;11.82;81.47;99586.16;5098705;28;20038;-84
2021/05/15 05:33:24;;;;;;;2.47;2.28;;;10.50;99.90;;;11.63;83.00;99581.66;5099225;28;20118;-84
2021/05/15 05:35:51;;;;;;;2.42;2.22;;;10.50;99.90;;;11.73;82.58;99580.94;5117517;28;20031;-84
2021/05/15 05:38:17;;;;;;;4.10;2.63;;;10.40;99.90;;;11.82;82.74;99574.97;5098888;28;20089;-82
2021/05/15 05:40:43;;;;;;;5.80;3.05;;;10.50;99.90;;;11.80;82.49;99582.97;5098451;28;20466;-84
2021/05/15 05:43:09;;;;;;;3.88;2.50;;;10.40;99.90;;;11.88;82.57;99573.44;5110072;22;20490;-82
2021/05/15 05:45:34;;;;;;;2.90;2.60;;;10.40;99.90;;;11.91;82.63;99573.44;5101908;28;20046;-83
2021/05/15 05:48:00;;;;;;;3.90;2.70;;;10.40;99.90;;;12.00;82.25;99582.28;5100886;28;20032;-82
2021/05/15 05:50:26;;;;;;;4.43;2.70;;;10.50;99.90;;;11.97;82.39;99571.88;5101723;28;20024;-83
2021/05/15 05:52:52;;;;;;;5.38;2.78;;;10.50;99.90;;;12.11;81.78;99580.31;5103887;28;20050;-82
2021/05/15 05:55:18;;;;;;;5.05;2.97;;;10.60;99.90;;;12.11;81.79;99577.50;5109404;28;20032;-81
2021/05/15 05:57:44;;;;;;;3.80;2.60;;;10.70;99.90;;;12.26;81.72;99581.19;5085433;28;20065;-82
2021/05/15 06:00:11;;;;;;;2.67;2.35;;;10.70;99.90;;;12.58;80.96;99570.06;5104207;28;20039;-80
2021/05/15 06:02:38;;;;;;;3.33;2.63;;;10.90;99.90;;;12.84;79.87;99580.91;5104441;28;20028;-81
2021/05/15 06:05:06;;;;;;;2.97;2.15;;;11.20;99.90;;;13.13;78.35;99588.13;5104278;28;20062;-84
2021/05/15 06:07:32;;;;;;;3.67;2.50;;;11.50;99.90;;;13.93;76.07;99581.97;5105488;28;20035;-80
2021/05/15 06:09:57;;;;;;;4.38;2.08;;;12.10;99.90;;;14.51;72.21;99581.34;5116729;28;20015;-81
2021/05/15 06:12:24;;;;;;;3.08;2.60;;;12.60;99.90;;;13.71;75.09;99570.81;5107231;28;20028;-82
2021/05/15 06:14:49;;;;;;;3.95;2.97;;;12.50;99.90;;;13.57;75.35;99579.28;5126241;28;20382;-83
2021/05/15 06:17:15;;;;;;;5.25;3.35;;;12.40;99.90;;;13.94;73.23;99570.34;5109239;28;20055;-85
2021/05/15 06:19:44;;;;;;;3.97;2.92;;;12.60;99.90;;;14.21;72.93;99574.25;5107440;28;20043;-82
2021/05/15 06:22:11;;;;;;;3.50;2.70;;;12.70;99.90;;;14.52;72.29;99569.69;5105122;28;20031;-82
2021/05/15 06:24:40;;;;;;;5.28;2.78;;;13.00;99.90;;;14.56;71.02;99581.72;5123454;28;20027;-82
2021/05/15 06:27:08;;;;;;;3.92;3.13;;;13.10;99.90;;;14.60;70.40;99565.63;5123117;28;20115;-80
2021/05/15 06:29:37;;;;;;;10.57;4.70;;;13.00;99.90;;;14.41;72.13;99573.78;5125428;28;20035;-83
2021/05/15 06:32:04;;;;;;;3.95;3.20;;;12.90;99.90;;;14.41;71.30;99568.16;5106405;28;20020;-82
2021/05/15 06:34:30;;;;;;;4.57;3.13;;;12.80;99.90;;;14.33;71.08;99573.00;5124460;28;20034;-82
2021/05/15 06:36:56;;;;;;;4.15;2.90;;;12.70;99.90;;;14.30;71.45;99570.97;5106379;28;20028;-80
2021/05/15 06:39:22;;;;;;;4.55;3.00;;;12.60;99.90;;;14.16;72.00;99569.03;5105833;28;20053;-81
2021/05/15 06:41:48;;;;;;;4.22;3.42;;;12.50;99.90;;;14.07;72.36;99568.69;5124142;28;20080;-82
2021/05/15 06:44:14;;;;;;;3.63;3.20;;;12.50;99.90;;;13.93;71.90;99565.16;5105668;28;20031;-82
2021/05/15 06:46:40;;;;;;;3.67;3.30;;;12.50;99.90;;;13.85;72.18;99557.94;5122912;28;20383;-81
2021/05/15 06:49:06;;;;;;;6.15;3.60;;;12.40;99.90;;;14.06;71.90;99558.66;5102353;28;20055;-79
2021/05/15 06:51:32;;;;;;;7.30;4.43;;;12.50;99.90;;;14.03;71.68;99561.50;5121794;28;20046;-80
2021/05/15 06:53:58;;;;;;;5.28;4.15;;;12.50;99.90;;;13.99;71.72;99560.72;5106234;28;20032;-81
2021/05/15 06:56:25;;;;;;;4.50;4.10;;;12.60;99.90;;;13.60;73.54;99566.44;5106490;28;20046;-79
2021/05/15 06:58:51;;;;;;;4.43;4.03;;;12.40;99.90;;;13.58;72.93;99566.06;5103907;28;20023;-80
2021/05/15 07:01:16;;;;;;;4.60;4.13;;;12.30;99.90;;;13.43;74.44;99567.28;5102654;28;20381;-82
2021/05/15 07:03:42;;;;;;;6.22;4.93;;;12.20;99.90;;;13.54;73.56;99571.66;5104595;28;20031;-80
2021/05/15 07:06:08;;;;;;;6.22;5.43;;;12.10;99.90;;;13.30;74.49;99557.66;5122987;28;20024;-80
2021/05/15 07:08:34;;;;;;;8.48;6.43;;;12.10;99.90;;;13.22;75.57;99564.50;5125433;28;20033;-81
2021/05/15 07:11:00;;;;;;;11.40;8.77;;;12.00;99.90;;;13.41;75.01;99558.47;5110606;28;20034;-80
2021/05/15 07:13:26;;;;;;;14.82;9.75;;;12.00;99.90;;;13.52;73.96;99562.84;5131795;28;20035;-79
2021/05/15 07:15:52;;;;;;;12.38;9.60;;;12.00;99.90;;;13.44;74.32;99561.28;5106317;28;20379;-81
2021/05/15 07:18:21;;;;;;;13.48;9.68;;;12.10;99.90;;;13.66;74.39;99560.00;5106133;28;20122;-83
2021/05/15 07:20:47;;;;;;;17.23;12.55;;;12.20;99.90;;;13.93;73.55;99554.72;5120939;28;20043;-83
2021/05/15 07:23:13;;;;;;;14.85;11.45;;;12.30;99.90;;;14.18;72.41;99548.97;5102824;28;20160;-83
2021/05/15 07:25:40;;;;;;;13.55;11.30;;;12.50;99.90;;;14.33;72.44;99558.13;5105138;28;20031;-84
2021/05/15 07:28:06;;;;;;;14.38;10.90;;;12.70;99.90;;;14.29;71.62;99554.56;5125036;28;20050;-83
2021/05/15 07:30:32;;;;;;;12.77;10.50;;;12.80;99.90;;;13.96;72.32;99547.50;5125007;28;20027;-81
2021/05/15 07:32:58;;;;;;;13.20;9.63;;;12.70;99.90;;;14.14;71.76;99545.38;5105797;28;20525;-79
2021/05/15 07:35:25;;;;;;;11.73;9.15;;;12.70;99.90;;;13.65;73.39;99555.59;5124913;28;20031;-82
2021/05/15 07:37:52;;;;;;;11.23;8.82;;;12.60;99.90;;;13.51;74.22;99550.03;5105663;28;20028;-82
2021/05/15 07:40:19;;;;;;;13.50;9.50;;;12.50;99.90;;;13.80;73.22;99550.75;5105621;28;20032;-83
2021/05/15 07:42:46;;;;;;;13.48;9.85;;;12.50;99.90;;;13.76;72.75;99547.16;5125535;28;20038;-82
2021/05/15 07:45:15;;;;;;;11.15;8.98;;;12.40;99.90;;;13.72;72.92;99549.97;5124392;28;20032;-82
2021/05/15 07:47:42;;;;;;;11.57;8.27;;;12.40;99.90;;;13.82;73.32;99547.53;5123250;28;20019;-78
2021/05/15 07:50:10;;;;;;;14.65;8.38;;;12.40;99.90;;;13.93;72.71;99551.91;5105057;28;20382;-81
2021/05/15 07:52:37;;;;;;;11.02;7.95;;;12.40;99.90;;;13.83;73.06;99555.56;5122645;28;20028;-80
2021/05/15 07:55:06;;;;;;;11.05;8.20;;;12.40;99.90;;;13.55;73.52;99550.03;5121920;28;20023;-81
2021/05/15 07:57:33;;;;;;;11.65;7.78;;;12.30;99.90;;;13.52;74.70;99543.19;5123467;28;20026;-80
2021/05/15 08:00:00;;;;;;;9.55;8.00;;;12.20;99.90;;;13.58;74.99;99541.59;5105261;28;20019;-80
2021/05/15 08:02:27;;;;;;;8.50;6.82;;;12.30;99.90;;;13.63;75.74;99566.44;5104956;28;20053;-79
2021/05/15 08:04:59;;;;;;;6.90;5.72;;;12.30;99.90;;;13.48;76.62;99561.25;5123611;28;20096;-80
2021/05/15 08:07:25;;;;;;;5.28;4.38;;;12.30;99.90;;;13.42;77.46;99563.66;5124291;28;20043;-81
2021/05/15 08:09:51;;;;;;;5.45;4.20;;;12.10;99.90;;;13.49;78.20;99562.84;5095815;28;20038;-81
2021/05/15 08:12:17;;;;;;;3.67;3.38;;;12.20;99.90;;;13.59;76.69;99562.03;5106118;28;20024;-79
2021/05/15 08:14:43;;;;;;;6.57;4.15;;;12.30;99.90;;;14.13;75.13;99557.81;5098218;28;20498;-80
2021/05/15 08:17:09;;;;;;;3.85;3.20;;;12.50;99.90;;;14.69;73.86;99557.53;5079433;28;20142;-79
2021/05/15 08:19:35;;;;;;;14.40;6.05;;;13.00;99.90;;;14.71;71.80;99557.09;5079712;28;20479;-79
2021/05/15 08:22:01;;;;;;;4.40;3.80;;;13.30;99.90;;;14.72;71.62;99553.91;5078262;28;20070;-80
2021/05/15 08:24:27;;;;;;;5.65;3.65;;;13.40;99.90;;;14.76;71.58;99548.25;5082244;28;20016;-80
2021/05/15 08:26:55;;;;;;;6.63;4.43;;;13.30;99.90;;;14.60;71.70;99554.38;5085964;28;20395;-81
2021/05/15 08:29:24;;;;;;;4.55;3.97;;;13.40;99.90;;;14.40;74.82;99544.88;5081582;28;20024;-80
2021/05/15 08:31:51;;;;;;;5.78;4.80;;;13.40;99.90;;;14.84;72.13;99555.41;5101723;28;20020;-81
2021/05/15 08:34:17;;;;;;;5.30;4.80;;;13.50;99.90;;;15.52;70.44;99545.19;5081690;28;20033;-83
2021/05/15 08:36:43;;;;;;;9.43;4.75;;;14.10;99.90;;;16.49;66.17;99545.59;5098060;28;20028;-80
2021/05/15 08:39:09;;;;;;;5.50;5.00;;;14.70;99.90;;;15.93;67.95;99538.69;5097607;28;20087;-80
2021/05/15 08:41:35;;;;;;;6.32;4.78;;;14.70;99.90;;;15.87;69.78;99532.72;5077506;28;20031;-81
2021/05/15 08:44:06;;;;;;;4.22;3.65;;;14.50;99.90;;;15.66;70.54;99545.03;5078109;28;20044;-81
2021/05/15 08:46:32;;;;;;;5.70;3.90;;;14.10;99.90;;;14.74;74.31;99545.03;5082530;28;20035;-83
2021/05/15 08:49:06;;;;;;;3.92;3.17;;;13.70;99.90;;;14.46;74.30;99543.22;5085139;28;20119;-82
2021/05/15 08:51:34;;;;;;;6.60;3.33;;;13.40;99.90;;;13.99;76.41;99536.25;5100552;28;20027;-81
2021/05/15 08:54:03;;;;;;;1.77;1.50;;;13.00;99.90;;;13.72;74.54;99535.94;5084113;28;20247;-83
2021/05/15 08:56:30;;;;;;;1.85;1.75;;;12.70;99.90;;;13.43;76.03;99542.03;5103641;28;20020;-81
2021/05/15 08:58:57;;;;;;;3.72;2.47;;;12.40;99.90;;;13.08;78.70;99543.69;5085023;28;20032;-82
2021/05/15 09:01:24;;;;;;;3.72;2.67;;;12.10;99.90;;;13.19;79.66;99536.06;5102119;28;20028;-80
2021/05/15 09:03:51;;;;;;;4.35;2.95;;;12.10;99.90;;;13.58;78.30;99535.19;5101621;28;20237;-82
2021/05/15 09:06:17;;;;;;;4.40;4.00;;;12.30;99.90;;;13.63;78.99;99527.16;5102388;28;20031;-80
2021/05/15 09:08:48;;;;;;;8.13;6.00;;;12.40;99.90;;;13.64;78.63;99519.53;5105636;28;20039;-82
2021/05/15 09:11:15;;;;;;;7.88;6.97;;;12.50;99.90;;;13.86;78.59;99528.69;5124532;28;20039;-81
2021/05/15 09:13:52;;;;;;;9.13;8.02;;;12.70;99.90;;;14.71;76.23;99523.38;5106605;28;20035;-80
2021/05/15 09:16:20;;;;;;;8.48;7.38;;;13.10;99.90;;;15.10;74.10;99523.88;5125873;28;20039;-84
2021/05/15 09:18:46;;;;;;;9.70;8.70;;;13.80;99.90;;;15.70;72.33;99516.84;5122850;28;20031;-81
2021/05/15 09:21:20;;;;;;;9.93;8.23;;;14.20;99.90;;;15.67;70.01;99514.84;5124182;28;20152;-81
2021/05/15 09:23:49;;;;;;;11.02;9.00;;;14.20;99.90;;;15.71;69.70;99515.63;5123994;28;20104;-83
2021/05/15 09:26:23;;;;;;;9.82;8.57;;;14.30;99.90;;;15.39;70.34;99510.31;5103062;28;20454;-82
2021/05/15 09:28:59;;;;;;;10.00;8.43;;;14.20;99.90;;;16.52;69.08;99517.34;5122117;28;20046;-80
2021/05/15 09:31:35;;;;;;;;;;;14.80;99.90;;;16.77;64.10;99512.16;5120712;28;20031;-82
2021/05/15 09:34:08;;;;;;;9.20;7.17;;;15.30;99.90;;;16.86;63.59;99517.25;5100999;28;19998;-82
2021/05/15 09:36:43;;;;;;;8.85;7.25;;;15.50;99.90;;;16.60;66.73;99509.63;5102276;28;20307;-82
2021/05/15 09:39:22;;;;;;;7.22;5.78;;;15.50;99.90;;;16.99;67.01;99506.16;5121423;28;20028;-82
2021/05/15 09:41:57;;;;;;;7.22;5.65;;;15.80;99.90;;;17.67;63.19;99503.72;5122086;28;20027;-82
2021/05/15 09:44:34;;;;;;;6.45;5.47;;;16.50;99.90;;;18.66;59.72;99499.53;5123918;28;20066;-83
2021/05/15 09:47:04;;;;;;;5.60;4.53;;;17.10;99.90;;;19.35;57.26;99489.69;5122980;28;20032;-81
2021/05/15 09:49:36;;;;;;;5.63;5.07;;;17.40;99.90;;;19.08;56.64;99494.06;5104568;28;20020;-81
2021/05/15 09:52:07;;;;;;;7.20;4.63;;;17.70;99.90;;;18.25;56.02;99491.59;5123438;28;20106;-84
2021/05/15 09:54:43;;;;;;;6.03;4.95;;;17.20;99.90;;;17.82;57.46;99485.25;5105602;28;20035;-84
2021/05/15 09:57:16;;;;;;;6.20;5.30;;;16.80;99.90;;;16.71;60.57;99482.06;5107698;28;20027;-81
2021/05/15 09:59:49;;;;;;;6.68;5.97;;;16.10;99.90;;;17.40;60.22;99481.25;5107705;28;20032;-84
2021/05/15 10:02:20;;;;;;;5.68;5.10;;;16.10;99.90;;;18.74;57.11;99472.69;5115008;28;20038;-81
2021/05/15 10:04:51;;;;;;;6.60;5.90;;;16.80;99.90;;;19.33;54.50;99465.88;5131481;28;20034;-82
2021/05/15 10:07:25;;;;;;;7.25;5.57;;;17.40;99.90;;;18.57;55.75;99468.25;5109112;28;20028;-84
2021/05/15 10:09:51;;;;;;;7.00;5.82;;;17.40;99.90;;;18.14;56.46;99465.56;5115739;28;20408;-83
2021/05/15 10:12:19;;;;;;;6.70;5.90;;;17.00;99.90;;;17.29;60.04;99460.88;5107826;28;20047;-85
2021/05/15 10:14:45;;;;;;;6.05;5.45;;;16.50;99.90;;;17.20;60.26;99453.00;5088854;28;20096;-84
2021/05/15 10:17:11;;;;;;;6.18;4.65;;;16.10;99.90;;;17.20;60.07;99447.34;5088952;28;20028;-85
2021/05/15 10:19:37;;;;;;;6.63;5.47;;;15.90;99.90;;;16.65;60.43;99447.13;5090288;28;20059;-86
2021/05/15 10:22:03;;;;;;;6.43;5.15;;;15.60;99.90;;;16.86;60.47;99458.81;5108337;28;20066;-82
2021/05/15 10:24:37;;;;;;;5.57;4.88;;;15.80;99.90;;;17.62;60.22;99445.75;5085968;28;20058;-80